Time;durP1;ratioP1;P1;durP2;ratioP2;P2;SDS_P1;SDS_P2;PMS_P1;PMS_P2;Temp;Humidity;BMP_temperature;BMP_pressure;BME280_temperature;BME280_humidity;BME280_pressure;Samples;Min_cycle;Max_cycle;Signal;HPM_P1;HPM_P2
2023/11/11 00:02:05;;;;;;;0.70;0.50;;;8.70;99.90;;;;;;5036414;28;20120;-84
2023/11/11 00:04:31;;;;;;;0.47;0.20;;;8.60;99.90;;;;;;5036569;28;20056;-84
2023/11/11 00:06:57;;;;;;;1.80;0.30;;;8.60;99.90;;;;;;5035958;28;20028;-84
2023/11/11 00:09:22;;;;;;;3.00;0.40;;;8.60;99.90;;;;;;5036432;28;20052;-84
2023/11/11 00:11:48;;;;;;;2.10;0.30;;;8.60;99.90;;;;;;5035918;28;20036;-84
2023/11/11 00:14:15;;;;;;;0.70;0.20;;;8.60;99.90;;;;;;5036735;28;20036;-83
2023/11/11 00:16:40;;;;;;;0.60;0.30;;;8.60;99.90;;;;;;5036202;28;20039;-84
2023/11/11 00:19:06;;;;;;;3.72;0.30;;;8.60;99.90;;;;;;5056112;28;20025;-85
2023/11/11 00:21:37;;;;;;;0.60;0.40;;;8.60;99.90;;;;;;5040267;28;20017;-84
2023/11/11 00:24:07;;;;;;;1.92;0.40;;;8.60;99.90;;;;;;5040471;28;20060;-84
2023/11/11 00:26:33;;;;;;;0.50;0.28;;;8.60;99.90;;;;;;5058053;28;20017;-84
2023/11/11 00:28:59;;;;;;;1.10;0.40;;;8.60;99.90;;;;;;5039597;28;20035;-84
2023/11/11 00:31:24;;;;;;;0.77;0.40;;;8.60;99.90;;;;;;5040053;28;20021;-85
2023/11/11 00:33:51;;;;;;;2.20;0.60;;;8.70;99.90;;;;;;5039547;28;20025;-82
2023/11/11 00:36:18;;;;;;;2.35;0.30;;;8.60;99.90;;;;;;5040181;28;20017;-83
2023/11/11 00:38:44;;;;;;;0.52;0.30;;;8.60;99.90;;;;;;5039707;28;20017;-83
2023/11/11 00:41:11;;;;;;;1.35;0.40;;;8.60;99.90;;;;;;5057532;28;20021;-83
2023/11/11 00:43:37;;;;;;;0.43;0.15;;;8.60;99.90;;;;;;5039629;28;20115;-84
2023/11/11 00:46:02;;;;;;;1.55;0.30;;;8.70;99.90;;;;;;5040271;28;20118;-83
2023/11/11 00:48:28;;;;;;;0.30;0.20;;;8.70;99.90;;;;;;5040314;28;20017;-85
2023/11/11 00:50:54;;;;;;;0.20;0.10;;;8.70;99.90;;;;;;5039516;28;20056;-83
2023/11/11 00:53:19;;;;;;;1.23;0.10;;;8.70;99.90;;;;;;5040408;28;20020;-82
2023/11/11 00:55:45;;;;;;;0.70;0.10;;;8.70;99.90;;;;;;5039627;28;20025;-83
2023/11/11 00:58:11;;;;;;;0.40;0.10;;;8.70;99.90;;;;;;5040120;28;20421;-83
2023/11/11 01:00:38;;;;;;;0.17;0.10;;;8.60;99.90;;;;;;5039946;28;20029;-84
2023/11/11 01:03:05;;;;;;;0.20;0.08;;;8.60;99.90;;;;;;5057447;28;20389;-83
2023/11/11 01:05:31;;;;;;;0.00;0.00;;;8.60;99.90;;;;;;5059569;28;20119;-83
2023/11/11 01:07:57;;;;;;;0.08;0.00;;;8.60;99.90;;;;;;5076933;28;20028;-84
2023/11/11 01:10:23;;;;;;;0.00;0.00;;;8.50;99.90;;;;;;5059365;28;20048;-83
2023/11/11 01:12:49;;;;;;;0.17;0.10;;;8.60;99.90;;;;;;5059229;28;20029;-83
2023/11/11 01:15:15;;;;;;;0.00;0.00;;;8.50;99.90;;;;;;5059405;28;20119;-83
2023/11/11 01:17:43;;;;;;;0.30;0.00;;;8.50;99.90;;;;;;5059161;28;20060;-83
2023/11/11 01:20:09;;;;;;;0.17;0.00;;;8.50;99.90;;;;;;5059067;28;20116;-83
2023/11/11 01:22:35;;;;;;;0.30;0.10;;;8.60;99.90;;;;;;5059253;28;20147;-83
2023/11/11 01:25:01;;;;;;;0.38;0.10;;;8.50;99.90;;;;;;5076315;28;20024;-83
2023/11/11 01:27:31;;;;;;;0.00;0.00;;;8.50;99.90;;;;;;5059551;28;20028;-84
2023/11/11 01:30:00;;;;;;;0.00;0.00;;;8.50;99.90;;;;;;5075693;28;20115;-84
2023/11/11 01:32:26;;;;;;;0.15;0.00;;;8.50;99.90;;;;;;5059520;28;20028;-84
2023/11/11 01:34:54;;;;;;;1.17;0.00;;;8.40;99.90;;;;;;5076326;28;20423;-82
2023/11/11 01:37:20;;;;;;;0.73;0.00;;;8.40;99.90;;;;;;5059091;28;20115;-82
2023/11/11 01:39:45;;;;;;;4.63;0.10;;;8.40;99.90;;;;;;5058461;28;20112;-83
2023/11/11 01:42:12;;;;;;;0.68;0.10;;;8.40;99.90;;;;;;5076353;28;20051;-83
2023/11/11 01:44:38;;;;;;;0.10;0.10;;;8.40;99.90;;;;;;5058726;28;20079;-82
2023/11/11 01:47:07;;;;;;;1.00;0.00;;;8.40;99.90;;;;;;5058853;28;20501;-82
2023/11/11 01:49:34;;;;;;;0.20;0.08;;;8.40;99.90;;;;;;5076471;28;20020;-83
2023/11/11 01:52:03;;;;;;;0.32;0.20;;;8.40;99.90;;;;;;5058510;28;20021;-82
2023/11/11 01:54:29;;;;;;;0.00;0.00;;;8.40;99.90;;;;;;5058781;28;20056;-82
2023/11/11 01:56:56;;;;;;;0.10;0.10;;;8.40;99.90;;;;;;5058508;28;20229;-81
2023/11/11 01:59:25;;;;;;;0.55;0.22;;;8.40;99.90;;;;;;5076344;28;20361;-82
2023/11/11 02:01:50;;;;;;;0.20;0.10;;;8.30;99.90;;;;;;5058533;28;20062;-83
2023/11/11 02:04:16;;;;;;;0.00;0.00;;;8.30;99.90;;;;;;5058475;28;20052;-82
2023/11/11 02:06:43;;;;;;;0.00;0.00;;;8.40;99.90;;;;;;5058503;28;20098;-82
2023/11/11 02:09:10;;;;;;;0.00;0.00;;;8.40;99.90;;;;;;5058081;28;20024;-82
2023/11/11 02:11:36;;;;;;;1.15;0.10;;;8.40;99.90;;;;;;5058228;28;20021;-83
2023/11/11 02:14:02;;;;;;;0.25;0.10;;;8.40;99.90;;;;;;5058004;28;20032;-83
2023/11/11 02:16:30;;;;;;;0.10;0.10;;;8.30;99.90;;;;;;5076471;28;20116;-84
2023/11/11 02:18:55;;;;;;;0.40;0.20;;;8.40;99.90;;;;;;5075799;28;20385;-83
2023/11/11 02:21:21;;;;;;;0.40;0.30;;;8.40;99.90;;;;;;5058316;28;20023;-83
2023/11/11 02:23:48;;;;;;;0.55;0.20;;;8.40;99.90;;;;;;5075365;28;20097;-84
2023/11/11 02:26:14;;;;;;;0.50;0.40;;;8.40;99.90;;;;;;5058455;28;20063;-83
2023/11/11 02:28:40;;;;;;;2.20;0.80;;;8.40;99.90;;;;;;5058000;28;20021;-83
2023/11/11 02:31:05;;;;;;;0.63;0.25;;;8.40;99.90;;;;;;5057546;28;20028;-83
2023/11/11 02:33:31;;;;;;;4.10;0.68;;;8.40;99.90;;;;;;5058128;28;20017;-83
2023/11/11 02:35:57;;;;;;;2.10;0.30;;;8.40;99.90;;;;;;5057161;28;20347;-83
2023/11/11 02:38:22;;;;;;;0.90;0.40;;;8.50;99.90;;;;;;5075632;28;20020;-84
2023/11/11 02:40:48;;;;;;;1.05;0.63;;;8.50;99.90;;;;;;5057209;28;20036;-84
2023/11/11 02:43:13;;;;;;;0.40;0.20;;;8.50;99.90;;;;;;5057773;28;20101;-83
2023/11/11 02:45:39;;;;;;;0.47;0.20;;;8.60;99.90;;;;;;5058115;28;20036;-83
2023/11/11 02:48:05;;;;;;;1.42;0.30;;;8.60;99.90;;;;;;5057341;28;20025;-83
2023/11/11 02:50:32;;;;;;;0.30;0.10;;;8.60;99.90;;;;;;5057653;28;20456;-84
2023/11/11 02:52:58;;;;;;;2.15;0.50;;;8.60;99.90;;;;;;5057376;28;20060;-84
2023/11/11 02:55:24;;;;;;;0.77;0.20;;;8.60;99.90;;;;;;5057618;28;20082;-82
2023/11/11 02:57:49;;;;;;;0.43;0.10;;;8.60;99.90;;;;;;5057517;28;20017;-83
2023/11/11 03:00:16;;;;;;;0.25;0.22;;;8.60;99.90;;;;;;5057540;28;20036;-83
2023/11/11 03:02:42;;;;;;;0.20;0.13;;;8.60;99.90;;;;;;5057965;28;20024;-82
2023/11/11 03:05:09;;;;;;;0.45;0.10;;;8.60;99.90;;;;;;5057006;28;20035;-83
2023/11/11 03:07:35;;;;;;;0.47;0.20;;;8.60;99.90;;;;;;5057767;28;20027;-82
2023/11/11 03:10:07;;;;;;;0.30;0.10;;;8.70;99.90;;;;;;5057555;28;20097;-82
2023/11/11 03:12:33;;;;;;;0.90;0.32;;;8.70;99.90;;;;;;5079110;28;20032;-83
2023/11/11 03:15:02;;;;;;;0.63;0.40;;;8.70;99.90;;;;;;5092971;28;20025;-82
2023/11/11 03:17:28;;;;;;;2.20;0.30;;;8.70;99.90;;;;;;5075263;28;20104;-83
2023/11/11 03:19:54;;;;;;;0.30;0.20;;;8.70;99.90;;;;;;5056720;28;20437;-83
2023/11/11 03:22:20;;;;;;;0.50;0.38;;;8.70;99.90;;;;;;5057494;28;20021;-83
2023/11/11 03:24:45;;;;;;;0.30;0.22;;;8.70;99.90;;;;;;5057008;28;20115;-83
2023/11/11 03:27:11;;;;;;;0.40;0.30;;;8.70;99.90;;;;;;5057226;28;20096;-83
2023/11/11 03:29:37;;;;;;;2.00;0.30;;;8.70;99.90;;;;;;5057178;28;20441;-83
2023/11/11 03:32:03;;;;;;;1.02;0.32;;;8.70;99.90;;;;;;5056674;28;20165;-83
2023/11/11 03:34:28;;;;;;;0.52;0.47;;;8.70;99.90;;;;;;5057304;28;20368;-84
2023/11/11 03:36:54;;;;;;;1.30;0.40;;;8.70;99.90;;;;;;5074118;28;20020;-85
2023/11/11 03:39:20;;;;;;;0.95;0.70;;;8.70;99.90;;;;;;5056976;28;20071;-84
2023/11/11 03:41:45;;;;;;;1.73;0.50;;;8.70;99.90;;;;;;5056857;28;20103;-84
2023/11/11 03:44:11;;;;;;;2.53;0.50;;;8.70;99.90;;;;;;5056393;28;20032;-84
2023/11/11 03:46:37;;;;;;;1.95;0.70;;;8.70;99.90;;;;;;5056704;28;20453;-84
2023/11/11 03:49:03;;;;;;;0.80;0.60;;;8.70;99.90;;;;;;5056137;28;20450;-84
2023/11/11 03:51:28;;;;;;;2.42;0.90;;;8.70;99.90;;;;;;5056669;28;20108;-84
2023/11/11 03:53:54;;;;;;;1.25;0.68;;;8.70;99.90;;;;;;5073013;28;20027;-83
2023/11/11 03:56:20;;;;;;;2.97;1.00;;;8.70;99.90;;;;;;5074365;28;20032;-84
2023/11/11 03:58:49;;;;;;;1.55;0.60;;;8.70;99.90;;;;;;5056215;28;20031;-84
2023/11/11 04:01:14;;;;;;;1.15;0.70;;;8.60;99.90;;;;;;5056353;28;20028;-84
2023/11/11 04:03:42;;;;;;;0.90;0.73;;;8.60;99.90;;;;;;5074155;28;20081;-84
2023/11/11 04:06:12;;;;;;;1.30;0.60;;;8.60;99.90;;;;;;5074154;28;20032;-84
2023/11/11 04:08:39;;;;;;;2.35;1.05;;;8.60;99.90;;;;;;5056822;28;20017;-85
2023/11/11 04:11:07;;;;;;;2.53;0.90;;;8.60;99.90;;;;;;5055826;28;20045;-84
2023/11/11 04:13:40;;;;;;;2.67;1.00;;;8.60;99.90;;;;;;5056633;28;20105;-84
2023/11/11 04:16:06;;;;;;;2.45;0.90;;;8.60;99.90;;;;;;5074251;28;20114;-84
2023/11/11 04:18:33;;;;;;;3.90;0.93;;;8.60;99.90;;;;;;5056722;28;20055;-84
2023/11/11 04:21:02;;;;;;;1.52;0.80;;;8.60;99.90;;;;;;5055741;28;20017;-84
2023/11/11 04:23:28;;;;;;;4.60;1.67;;;8.50;99.90;;;;;;5056036;28;20025;-83
2023/11/11 04:25:58;;;;;;;2.67;1.20;;;8.50;99.90;;;;;;5055637;28;20025;-84
2023/11/11 04:28:24;;;;;;;2.15;1.10;;;8.40;99.90;;;;;;5073840;28;20364;-84
2023/11/11 04:30:50;;;;;;;3.20;1.20;;;8.40;99.90;;;;;;5073624;28;20020;-84
2023/11/11 04:33:16;;;;;;;3.20;1.30;;;8.40;99.90;;;;;;5056304;28;20530;-84
2023/11/11 04:35:42;;;;;;;2.33;1.20;;;8.40;99.90;;;;;;5056540;28;20020;-84
2023/11/11 04:38:08;;;;;;;3.08;1.23;;;8.40;99.90;;;;;;5055751;28;20028;-84
2023/11/11 04:40:36;;;;;;;2.78;1.33;;;8.40;99.90;;;;;;5056530;28;20063;-84
2023/11/11 04:43:02;;;;;;;1.83;1.10;;;8.30;99.90;;;;;;5055923;28;20020;-84
2023/11/11 04:45:29;;;;;;;2.33;1.20;;;8.30;99.90;;;;;;5055688;28;20028;-84
2023/11/11 04:47:54;;;;;;;4.90;1.92;;;8.30;99.90;;;;;;5055795;28;20481;-84
2023/11/11 04:50:21;;;;;;;2.00;1.17;;;8.30;99.90;;;;;;5055289;28;20119;-84
2023/11/11 04:52:46;;;;;;;2.72;1.15;;;8.30;99.90;;;;;;5056098;28;20029;-84
2023/11/11 04:55:12;;;;;;;3.10;1.38;;;8.20;99.90;;;;;;5055448;28;20033;-84
2023/11/11 04:57:38;;;;;;;3.95;1.27;;;8.20;99.90;;;;;;5056143;28;20020;-84
2023/11/11 05:00:09;;;;;;;4.10;1.50;;;8.20;99.90;;;;;;5055456;28;20032;-84
2023/11/11 05:02:39;;;;;;;3.85;1.25;;;8.20;99.90;;;;;;5056200;28;20028;-83
2023/11/11 05:05:10;;;;;;;4.03;1.33;;;8.20;99.90;;;;;;5057265;28;20056;-83
2023/11/11 05:07:38;;;;;;;4.00;1.00;;;8.20;99.90;;;;;;5059552;28;20028;-83
2023/11/11 05:10:05;;;;;;;3.40;1.33;;;8.20;99.90;;;;;;5058551;28;20100;-84
2023/11/11 05:12:33;;;;;;;2.42;1.30;;;8.30;99.90;;;;;;5077003;28;20077;-83
2023/11/11 05:14:59;;;;;;;2.40;1.00;;;8.20;99.90;;;;;;5058349;28;20081;-83
2023/11/11 05:17:25;;;;;;;3.45;1.45;;;8.30;99.90;;;;;;5059622;28;20096;-83
2023/11/11 05:19:55;;;;;;;2.35;1.17;;;8.20;99.90;;;;;;5059043;28;20021;-83
2023/11/11 05:22:20;;;;;;;2.28;1.38;;;8.20;99.90;;;;;;5059275;28;20012;-83
2023/11/11 05:24:46;;;;;;;4.93;1.40;;;8.20;99.90;;;;;;5059594;28;20123;-83
2023/11/11 05:27:14;;;;;;;4.70;1.10;;;8.20;99.90;;;;;;5059035;28;20029;-83
2023/11/11 05:29:39;;;;;;;2.38;1.00;;;8.20;99.90;;;;;;5059352;28;20065;-83
2023/11/11 05:32:06;;;;;;;2.00;1.63;;;8.20;99.90;;;;;;5058484;28;20021;-83
2023/11/11 05:34:31;;;;;;;2.30;1.30;;;8.20;99.90;;;;;;5058902;28;20028;-83
2023/11/11 05:36:58;;;;;;;3.20;1.55;;;8.20;99.90;;;;;;5058957;28;20524;-83
2023/11/11 05:39:23;;;;;;;1.55;1.17;;;8.20;99.90;;;;;;5059243;28;20035;-83
2023/11/11 05:41:50;;;;;;;1.88;1.10;;;8.20;99.90;;;;;;5059476;28;20088;-83
2023/11/11 05:44:17;;;;;;;2.17;1.50;;;8.10;99.90;;;;;;5058702;28;20075;-83
2023/11/11 05:46:42;;;;;;;2.78;1.35;;;8.10;99.90;;;;;;5059009;28;20377;-83
2023/11/11 05:49:08;;;;;;;2.50;1.10;;;8.10;99.90;;;;;;5058616;28;20028;-83
2023/11/11 05:51:34;;;;;;;3.25;1.13;;;8.10;99.90;;;;;;5059063;28;20448;-83
2023/11/11 05:54:01;;;;;;;3.67;1.33;;;8.10;99.90;;;;;;5076189;28;20579;-84
2023/11/11 05:56:27;;;;;;;2.55;1.00;;;8.10;99.90;;;;;;5059059;28;20471;-83
2023/11/11 05:58:53;;;;;;;2.20;1.35;;;8.20;99.90;;;;;;5058519;28;20020;-83
2023/11/11 06:01:19;;;;;;;3.25;1.17;;;8.10;99.90;;;;;;5058086;28;20027;-83
2023/11/11 06:03:44;;;;;;;2.60;1.45;;;8.10;99.90;;;;;;5058759;28;20028;-83
2023/11/11 06:06:11;;;;;;;2.63;1.30;;;8.20;99.90;;;;;;5058270;28;20453;-84
2023/11/11 06:08:36;;;;;;;3.25;1.30;;;8.20;99.90;;;;;;5058188;28;20021;-83
2023/11/11 06:11:02;;;;;;;4.90;1.10;;;8.20;99.90;;;;;;5054655;28;20045;-84
2023/11/11 06:13:28;;;;;;;2.60;1.10;;;8.20;99.90;;;;;;5055040;28;20469;-84
2023/11/11 06:15:54;;;;;;;2.13;1.23;;;8.20;99.90;;;;;;5054890;28;20033;-83
2023/11/11 06:18:19;;;;;;;3.53;0.95;;;8.20;99.90;;;;;;5054502;28;20449;-85
2023/11/11 06:20:45;;;;;;;4.65;1.20;;;8.10;99.90;;;;;;5056566;28;20025;-84
2023/11/11 06:23:11;;;;;;;3.58;1.25;;;8.20;99.90;;;;;;5054310;28;20024;-83
2023/11/11 06:25:37;;;;;;;2.58;1.45;;;8.10;99.90;;;;;;5056211;28;20021;-83
2023/11/11 06:28:02;;;;;;;4.40;1.00;;;8.20;99.90;;;;;;5055330;28;20082;-83
2023/11/11 06:30:28;;;;;;;6.18;1.83;;;8.10;99.90;;;;;;5055057;28;20039;-83
2023/11/11 06:32:56;;;;;;;2.90;1.45;;;8.10;99.90;;;;;;5054584;28;20086;-82
2023/11/11 06:35:26;;;;;;;5.35;1.30;;;8.10;99.90;;;;;;5054248;28;20472;-81
2023/11/11 06:37:53;;;;;;;3.83;1.30;;;8.10;99.90;;;;;;5074223;28;20035;-82
2023/11/11 06:40:18;;;;;;;2.35;1.40;;;8.20;99.90;;;;;;5077384;28;20033;-83
2023/11/11 06:42:45;;;;;;;2.92;1.33;;;8.20;99.90;;;;;;5056277;28;20024;-82
2023/11/11 06:45:14;;;;;;;3.90;1.50;;;8.20;99.90;;;;;;5055594;28;20473;-83
2023/11/11 06:47:41;;;;;;;3.03;1.20;;;8.20;99.90;;;;;;5054356;28;20365;-83
2023/11/11 06:50:07;;;;;;;2.33;1.48;;;8.20;99.90;;;;;;5054129;28;20021;-83
2023/11/11 06:52:35;;;;;;;3.67;1.30;;;8.20;99.90;;;;;;5055400;28;20020;-83
2023/11/11 06:55:02;;;;;;;4.63;1.35;;;8.20;99.90;;;;;;5053637;28;20021;-83
2023/11/11 06:57:28;;;;;;;5.30;1.30;;;8.20;99.90;;;;;;5054147;28;20028;-83
2023/11/11 06:59:54;;;;;;;4.57;1.27;;;8.20;99.90;;;;;;5055216;28;20506;-83
2023/11/11 07:02:22;;;;;;;1.90;0.98;;;8.20;99.90;;;;;;5053886;28;20025;-83
2023/11/11 07:04:53;;;;;;;5.00;1.40;;;8.20;99.90;;;;;;5054112;28;20031;-84
2023/11/11 07:07:21;;;;;;;2.45;1.30;;;8.20;99.90;;;;;;5053387;28;20089;-84
2023/11/11 07:09:50;;;;;;;2.08;1.40;;;8.20;99.90;;;;;;5053766;28;20090;-83
2023/11/11 07:12:17;;;;;;;3.58;1.40;;;8.20;99.90;;;;;;5053555;28;20044;-83
2023/11/11 07:14:44;;;;;;;4.53;1.58;;;8.20;99.90;;;;;;5054008;28;20110;-83
2023/11/11 07:17:11;;;;;;;4.05;1.50;;;8.20;99.90;;;;;;5053145;28;20025;-84
2023/11/11 07:19:40;;;;;;;1.92;1.15;;;8.20;99.90;;;;;;5054061;28;20108;-82
2023/11/11 07:22:07;;;;;;;4.25;1.50;;;8.20;99.90;;;;;;5053202;28;20044;-84
2023/11/11 07:24:33;;;;;;;2.55;1.40;;;8.20;99.90;;;;;;5053977;28;20025;-83
2023/11/11 07:26:59;;;;;;;5.45;1.15;;;8.20;99.90;;;;;;5053200;28;20052;-84
2023/11/11 07:29:25;;;;;;;5.68;1.95;;;8.20;99.90;;;;;;5052427;28;20036;-84
2023/11/11 07:31:51;;;;;;;2.22;1.10;;;8.20;99.90;;;;;;5054812;28;20027;-84
2023/11/11 07:34:17;;;;;;;2.78;1.00;;;8.20;99.90;;;;;;5053420;28;20032;-84
2023/11/11 07:36:43;;;;;;;3.05;1.55;;;8.30;99.90;;;;;;5054815;28;20017;-83
2023/11/11 07:39:08;;;;;;;3.20;1.33;;;8.30;99.90;;;;;;5052798;28;20089;-84
2023/11/11 07:41:34;;;;;;;2.60;1.35;;;8.30;99.90;;;;;;5053316;28;20021;-83
2023/11/11 07:44:04;;;;;;;4.32;1.33;;;8.30;99.90;;;;;;5053284;28;20032;-83
2023/11/11 07:46:32;;;;;;;2.58;1.10;;;8.40;99.90;;;;;;5053484;28;20026;-84
2023/11/11 07:48:59;;;;;;;3.22;1.20;;;8.40;99.90;;;;;;5053524;28;20021;-83
2023/11/11 07:51:25;;;;;;;5.43;1.60;;;8.30;99.90;;;;;;5052575;28;20032;-84
2023/11/11 07:53:51;;;;;;;2.97;1.48;;;8.30;99.90;;;;;;5054605;28;20029;-84
2023/11/11 07:56:17;;;;;;;5.25;1.52;;;8.30;99.90;;;;;;5053732;28;20017;-84
2023/11/11 07:58:42;;;;;;;4.72;1.70;;;8.20;99.90;;;;;;5053502;28;20021;-84
2023/11/11 08:01:08;;;;;;;2.00;1.50;;;8.20;99.90;;;;;;5052829;28;20032;-85
2023/11/11 08:03:34;;;;;;;3.63;1.17;;;8.20;99.90;;;;;;5053097;28;20103;-85
2023/11/11 08:05:59;;;;;;;2.72;1.40;;;8.20;99.90;;;;;;5053121;28;20454;-85
2023/11/11 08:08:26;;;;;;;4.13;1.48;;;8.20;99.90;;;;;;5053733;28;20032;-85
2023/11/11 08:10:52;;;;;;;4.55;1.50;;;8.10;99.90;;;;;;5052638;28;20128;-84
2023/11/11 08:13:18;;;;;;;1.90;1.40;;;8.10;99.90;;;;;;5052779;28;20060;-84
2023/11/11 08:15:44;;;;;;;2.60;1.60;;;8.20;99.90;;;;;;5053031;28;20064;-84
2023/11/11 08:18:10;;;;;;;3.65;1.50;;;8.20;99.90;;;;;;5053680;28;20051;-84
2023/11/11 08:20:35;;;;;;;3.83;1.48;;;8.20;99.90;;;;;;5052981;28;20466;-85
2023/11/11 08:23:02;;;;;;;3.28;1.33;;;8.20;99.90;;;;;;5053075;28;20028;-83
2023/11/11 08:25:28;;;;;;;3.65;1.35;;;8.20;99.90;;;;;;5053651;28;20358;-83
2023/11/11 08:27:55;;;;;;;3.72;1.50;;;8.30;99.90;;;;;;5050066;28;20025;-85
2023/11/11 08:30:22;;;;;;;4.53;1.80;;;8.30;99.90;;;;;;5041816;28;20021;-86
2023/11/11 08:32:48;;;;;;;8.88;1.67;;;8.40;99.90;;;;;;5035564;28;20156;-85
2023/11/11 08:35:15;;;;;;;3.10;1.40;;;8.40;99.90;;;;;;5038494;28;20462;-85
2023/11/11 08:37:45;;;;;;;5.80;1.60;;;8.40;99.90;;;;;;5049977;28;20129;-86
2023/11/11 08:40:11;;;;;;;6.10;1.55;;;8.50;99.90;;;;;;5046111;28;20461;-85
2023/11/11 08:42:38;;;;;;;4.55;1.60;;;8.40;99.90;;;;;;5058133;28;20029;-83
2023/11/11 08:45:05;;;;;;;4.05;1.60;;;8.50;99.90;;;;;;5056900;28;20065;-83
2023/11/11 08:47:31;;;;;;;3.33;1.52;;;8.50;99.90;;;;;;5049173;28;20033;-84
2023/11/11 08:49:56;;;;;;;4.05;1.30;;;8.50;99.90;;;;;;5045941;28;20071;-84
2023/11/11 08:52:22;;;;;;;2.92;1.48;;;8.60;99.90;;;;;;5046178;28;20044;-84
2023/11/11 08:54:50;;;;;;;10.52;3.85;;;8.60;99.90;;;;;;5044191;28;20485;-84
2023/11/11 08:57:15;;;;;;;4.25;2.10;;;8.50;99.90;;;;;;5046964;28;20017;-83
2023/11/11 08:59:41;;;;;;;4.82;2.22;;;8.60;99.90;;;;;;5044750;28;20120;-83
2023/11/11 09:02:07;;;;;;;4.55;1.60;;;8.60;99.90;;;;;;5047269;28;20447;-83
2023/11/11 09:04:33;;;;;;;3.67;1.50;;;8.60;99.90;;;;;;5047642;28;20052;-84
2023/11/11 09:06:59;;;;;;;3.08;1.50;;;8.60;99.90;;;;;;5050265;28;20025;-85
2023/11/11 09:09:25;;;;;;;6.45;2.15;;;8.60;99.90;;;;;;5043711;28;20045;-85
2023/11/11 09:11:50;;;;;;;4.13;1.63;;;8.70;99.90;;;;;;5045526;28;20013;-85
2023/11/11 09:14:16;;;;;;;4.03;1.38;;;8.60;99.90;;;;;;5043957;28;20035;-85
2023/11/11 09:16:42;;;;;;;6.40;1.80;;;8.60;99.90;;;;;;5047659;28;20013;-84
2023/11/11 09:19:07;;;;;;;4.13;1.60;;;8.70;99.90;;;;;;5046614;28;20485;-86
2023/11/11 09:21:33;;;;;;;5.32;1.60;;;8.70;99.90;;;;;;5045914;28;20561;-84
2023/11/11 09:23:59;;;;;;;5.30;1.83;;;8.70;99.90;;;;;;5045234;28;20104;-85
2023/11/11 09:26:25;;;;;;;5.20;1.98;;;8.70;99.90;;;;;;5046890;28;20047;-85
2023/11/11 09:28:51;;;;;;;5.20;1.70;;;8.70;99.90;;;;;;5045485;28;20017;-85
2023/11/11 09:31:17;;;;;;;3.75;1.90;;;8.70;99.90;;;;;;5046535;28;20018;-84
2023/11/11 09:33:44;;;;;;;5.20;1.73;;;8.70;99.90;;;;;;5035390;28;20030;-84
2023/11/11 09:36:10;;;;;;;3.35;1.75;;;8.70;99.90;;;;;;5046817;28;20082;-84
2023/11/11 09:38:36;;;;;;;5.00;1.67;;;8.70;99.90;;;;;;5054167;28;20025;-92
2023/11/11 09:41:03;;;;;;;6.93;2.17;;;8.70;99.90;;;;;;5056987;28;20017;-84
2023/11/11 09:43:29;;;;;;;3.78;1.52;;;8.80;99.90;;;;;;5054789;28;20032;-84
2023/11/11 09:45:55;;;;;;;3.00;2.35;;;8.80;99.90;;;;;;5053539;28;20041;-87
2023/11/11 09:48:21;;;;;;;3.65;1.70;;;8.80;99.90;;;;;;5050841;28;20033;-85
2023/11/11 09:50:47;;;;;;;2.28;1.40;;;8.80;99.90;;;;;;5051200;28;20056;-86
2023/11/11 09:53:13;;;;;;;3.53;1.38;;;8.80;99.90;;;;;;5045543;28;20053;-86
2023/11/11 09:55:40;;;;;;;3.67;1.30;;;8.90;99.90;;;;;;5055045;28;20031;-87
2023/11/11 09:58:08;;;;;;;3.08;1.30;;;8.80;99.90;;;;;;5045610;28;20026;-86
2023/11/11 10:00:34;;;;;;;4.03;1.30;;;8.90;99.90;;;;;;5047028;28;20097;-85
2023/11/11 10:03:00;;;;;;;3.65;1.60;;;8.90;99.90;;;;;;5051162;28;20064;-90
2023/11/11 10:05:26;;;;;;;2.80;1.38;;;9.00;99.90;;;;;;5071848;28;20041;-90
2023/11/11 10:07:51;;;;;;;4.38;1.88;;;9.10;99.90;;;;;;5057823;28;20014;-88
2023/11/11 10:12:52;;;;;;;3.38;1.58;;;9.20;99.90;;;;;;5551089;23;20112;-82
2023/11/11 10:15:18;;;;;;;4.90;1.30;;;9.20;99.90;;;;;;5034285;28;20064;-84
2023/11/11 10:17:44;;;;;;;3.63;1.42;;;9.30;99.90;;;;;;5035431;28;20386;-83
2023/11/11 10:20:17;;;;;;;1.83;1.05;;;9.30;99.90;;;;;;5018039;28;20040;-89
2023/11/11 10:22:43;;;;;;;3.15;1.20;;;9.30;99.90;;;;;;5018892;28;20029;-89
2023/11/11 10:25:11;;;;;;;10.18;1.30;;;9.30;99.90;;;;;;5018770;28;20044;-86
2023/11/11 10:27:36;;;;;;;4.03;1.33;;;9.30;99.90;;;;;;5035449;28;20056;-88
2023/11/11 10:30:03;;;;;;;1.75;0.90;;;9.40;99.90;;;;;;5019328;28;20025;-91
2023/11/11 10:32:37;;;;;;;3.38;1.20;;;9.50;99.90;;;;;;5023269;28;20593;-91
2023/11/11 10:35:10;;;;;;;2.78;1.13;;;9.60;99.90;;;;;;5017993;28;20025;-91
2023/11/11 10:37:38;;;;;;;2.45;1.15;;;9.60;99.90;;;;;;4997812;28;20036;-90
2023/11/11 10:40:04;;;;;;;3.45;1.00;;;9.70;99.90;;;;;;5007998;28;20025;-89
2023/11/11 10:42:31;;;;;;;1.83;0.95;;;9.80;99.90;;;;;;5009268;28;20115;-90
2023/11/11 10:44:57;;;;;;;3.15;1.10;;;9.90;99.90;;;;;;5006384;28;20390;-90
2023/11/11 10:47:26;;;;;;;2.63;0.85;;;10.00;99.90;;;;;;5036767;28;20049;-96
2023/11/11 10:49:52;;;;;;;2.92;1.20;;;10.10;99.90;;;;;;5017468;28;20025;-85
2023/11/11 10:52:20;;;;;;;4.63;1.98;;;10.10;99.90;;;;;;5016533;28;20091;-85
2023/11/11 10:54:48;;;;;;;3.38;1.13;;;10.10;99.90;;;;;;5017092;28;20033;-85
2023/11/11 10:57:15;;;;;;;2.65;0.98;;;10.10;99.90;;;;;;5016301;28;20089;-85
2023/11/11 10:59:41;;;;;;;3.80;1.20;;;9.90;99.90;;;;;;5012871;28;20026;-91
2023/11/11 11:02:10;;;;;;;3.85;1.30;;;9.80;99.90;;;;;;5012703;28;20025;-95
2023/11/11 11:04:43;;;;;;;1.73;0.85;;;9.80;99.90;;;;;;5019370;28;20100;-94
2023/11/11 11:07:18;;;;;;;1.55;1.00;;;9.80;99.90;;;;;;5024253;28;20117;-93
2023/11/11 11:09:54;;;;;;;2.45;0.82;;;9.80;99.90;;;;;;5008448;28;20036;-90
2023/11/11 11:12:31;;;;;;;2.35;0.85;;;9.80;99.90;;;;;;5009296;28;20057;-90
2023/11/11 11:15:00;;;;;;;4.78;1.25;;;9.80;99.90;;;;;;5016334;28;20053;-91
2023/11/11 11:17:43;;;;;;;5.35;1.42;;;9.80;99.90;;;;;;5015244;28;20036;-92
2023/11/11 11:20:14;;;;;;;3.70;1.00;;;9.70;99.90;;;;;;5003179;28;20030;-93
2023/11/11 11:22:42;;;;;;;3.53;0.70;;;9.70;99.90;;;;;;5018966;28;20393;-91
2023/11/11 11:25:48;;;;;;;2.47;1.00;;;9.60;99.90;;;;;;5014012;28;20044;-92
2023/11/11 11:28:21;;;;;;;1.85;0.98;;;9.50;99.90;;;;;;4920709;29;20148;-86
2023/11/11 11:30:54;;;;;;;3.50;0.93;;;9.40;99.90;;;;;;4933136;29;20035;-89
2023/11/11 11:33:31;;;;;;;3.95;1.25;;;9.50;99.90;;;;;;4937689;29;20147;-89
2023/11/11 11:36:01;;;;;;;3.83;1.50;;;9.50;99.90;;;;;;4930842;29;20043;-91
2023/11/11 11:38:32;;;;;;;2.95;1.00;;;9.60;99.90;;;;;;4930468;29;20038;-94
2023/11/11 11:41:10;;;;;;;2.10;0.80;;;9.70;99.90;;;;;;4926532;29;20023;-88
2023/11/11 11:43:36;;;;;;;5.45;1.23;;;9.70;99.90;;;;;;4951121;29;20031;-87
2023/11/11 11:46:04;;;;;;;2.33;0.70;;;9.80;99.90;;;;;;4921332;29;20047;-92
2023/11/11 11:48:32;;;;;;;3.88;0.90;;;9.80;99.90;;;;;;4937147;29;20046;-93
2023/11/11 11:51:09;;;;;;;4.95;0.90;;;9.70;99.90;;;;;;4955017;29;20058;-96
2023/11/11 11:53:42;;;;;;;3.72;0.98;;;9.60;99.90;;;;;;4938112;29;20046;-85
2023/11/11 11:56:10;;;;;;;2.17;0.88;;;9.70;99.90;;;;;;4953175;29;20498;-87
2023/11/11 11:58:50;;;;;;;2.83;0.70;;;9.80;99.90;;;;;;4968893;28;20401;-90
2023/11/11 12:01:29;;;;;;;2.83;0.80;;;9.90;99.90;;;;;;5019755;28;20026;-95
2023/11/11 12:03:55;;;;;;;2.50;0.73;;;10.10;99.90;;;;;;5010086;28;20026;-85
2023/11/11 12:06:26;;;;;;;0.77;0.75;;;10.30;99.90;;;;;;5009221;28;20038;-92
2023/11/11 12:09:01;;;;;;;1.58;0.70;;;10.30;99.90;;;;;;5009787;28;20030;-86
2023/11/11 12:11:28;;;;;;;5.68;0.80;;;10.50;99.90;;;;;;5017402;28;20031;-94
2023/11/11 12:13:56;;;;;;;2.35;0.80;;;10.80;99.90;;;;;;5017282;28;20045;-86
2023/11/11 12:16:42;;;;;;;2.60;0.60;;;10.80;99.90;;;;;;5016217;28;20029;-87
2023/11/11 12:19:18;;;;;;;1.85;1.08;;;11.00;99.90;;;;;;5019400;28;20060;-87
2023/11/11 12:21:45;;;;;;;2.47;0.60;;;10.90;99.90;;;;;;5006570;28;20036;-85
2023/11/11 12:24:13;;;;;;;2.97;1.08;;;10.70;99.90;;;;;;5010229;28;20038;-86
2023/11/11 12:26:41;;;;;;;0.98;0.57;;;10.60;99.90;;;;;;5013904;28;20029;-85
2023/11/11 12:29:07;;;;;;;1.48;0.70;;;10.50;99.90;;;;;;5021377;28;20026;-87
2023/11/11 12:31:41;;;;;;;1.10;0.70;;;10.40;99.90;;;;;;5032244;28;20085;-87
2023/11/11 12:34:08;;;;;;;2.47;0.75;;;10.30;99.90;;;;;;5009565;28;20025;-92
2023/11/11 12:36:38;;;;;;;1.20;0.40;;;10.10;99.90;;;;;;5019817;28;20033;-91
2023/11/11 12:39:07;;;;;;;1.35;0.50;;;10.00;99.90;;;;;;5020574;28;20025;-95
2023/11/11 12:41:34;;;;;;;1.80;0.63;;;10.00;99.90;;;;;;5037107;28;20017;-85
2023/11/11 12:44:02;;;;;;;1.42;0.40;;;9.90;99.90;;;;;;5011482;28;20034;-92
2023/11/11 12:46:28;;;;;;;0.70;0.40;;;9.90;99.90;;;;;;5005951;28;20033;-90
2023/11/11 12:48:55;;;;;;;0.70;0.30;;;9.80;99.90;;;;;;5020544;28;20033;-89
2023/11/11 12:51:30;;;;;;;1.77;0.40;;;9.80;99.90;;;;;;5003627;28;20030;-92
2023/11/11 12:53:57;;;;;;;1.00;0.40;;;9.90;99.90;;;;;;5037292;28;20033;-92
2023/11/11 12:56:24;;;;;;;3.88;0.70;;;10.00;99.90;;;;;;5019741;28;20521;-86
2023/11/11 12:59:03;;;;;;;1.05;0.47;;;10.30;99.90;;;;;;5019810;28;20029;-89